sensor_id;sensor_type;location;lat;lon;timestamp;temperature;humidity
23568;DHT22;11962;50.838;4.430;2023-11-21T00:00:16;12.30;99.90
23568;DHT22;11962;50.838;4.430;2023-11-21T00:02:43;12.30;99.90
23568;DHT22;11962;50.838;4.430;2023-11-21T00:05:10;12.30;99.90
23568;DHT22;11962;50.838;4.430;2023-11-21T00:07:37;12.30;99.90
23568;DHT22;11962;50.838;4.430;2023-11-21T00:10:03;12.30;99.90
23568;DHT22;11962;50.838;4.430;2023-11-21T00:12:31;12.30;99.90
23568;DHT22;11962;50.838;4.430;2023-11-21T00:14:57;12.30;99.90
23568;DHT22;11962;50.838;4.430;2023-11-21T00:17:23;12.30;99.90
23568;DHT22;11962;50.838;4.430;2023-11-21T00:19:50;12.30;99.90
23568;DHT22;11962;50.838;4.430;2023-11-21T00:22:17;12.30;99.90
23568;DHT22;11962;50.838;4.430;2023-11-21T00:24:44;12.30;99.90
23568;DHT22;11962;50.838;4.430;2023-11-21T00:27:09;12.30;99.90
23568;DHT22;11962;50.838;4.430;2023-11-21T00:29:35;12.30;99.90
23568;DHT22;11962;50.838;4.430;2023-11-21T00:32:01;12.20;99.90
23568;DHT22;11962;50.838;4.430;2023-11-21T00:34:27;12.20;99.90
23568;DHT22;11962;50.838;4.430;2023-11-21T00:36:53;12.20;99.90
23568;DHT22;11962;50.838;4.430;2023-11-21T00:39:18;12.20;99.90
23568;DHT22;11962;50.838;4.430;2023-11-21T00:41:44;12.20;99.90
23568;DHT22;11962;50.838;4.430;2023-11-21T00:44:11;12.20;99.90
23568;DHT22;11962;50.838;4.430;2023-11-21T00:46:36;12.20;99.90
23568;DHT22;11962;50.838;4.430;2023-11-21T00:49:02;12.10;99.90
23568;DHT22;11962;50.838;4.430;2023-11-21T00:51:30;12.10;99.90
23568;DHT22;11962;50.838;4.430;2023-11-21T00:53:55;12.00;99.90
23568;DHT22;11962;50.838;4.430;2023-11-21T00:56:21;12.00;99.90
23568;DHT22;11962;50.838;4.430;2023-11-21T00:58:47;11.90;99.90
23568;DHT22;11962;50.838;4.430;2023-11-21T01:01:20;11.90;99.90
23568;DHT22;11962;50.838;4.430;2023-11-21T01:03:47;11.80;99.90
23568;DHT22;11962;50.838;4.430;2023-11-21T01:06:14;11.80;99.90
23568;DHT22;11962;50.838;4.430;2023-11-21T01:08:40;11.80;99.90
23568;DHT22;11962;50.838;4.430;2023-11-21T01:11:06;11.80;99.90
23568;DHT22;11962;50.838;4.430;2023-11-21T01:13:34;11.90;99.90
23568;DHT22;11962;50.838;4.430;2023-11-21T01:16:00;11.90;99.90
23568;DHT22;11962;50.838;4.430;2023-11-21T01:18:26;11.90;99.90
23568;DHT22;11962;50.838;4.430;2023-11-21T01:20:52;11.90;99.90
23568;DHT22;11962;50.838;4.430;2023-11-21T01:23:21;11.90;99.90
23568;DHT22;11962;50.838;4.430;2023-11-21T01:25:47;11.90;99.90
23568;DHT22;11962;50.838;4.430;2023-11-21T01:28:13;11.90;99.90
23568;DHT22;11962;50.838;4.430;2023-11-21T01:30:39;11.90;99.90
23568;DHT22;11962;50.838;4.430;2023-11-21T01:33:04;11.90;99.90
23568;DHT22;11962;50.838;4.430;2023-11-21T01:35:30;11.90;99.90
23568;DHT22;11962;50.838;4.430;2023-11-21T01:37:56;12.00;99.90
23568;DHT22;11962;50.838;4.430;2023-11-21T01:40:22;11.90;99.90
23568;DHT22;11962;50.838;4.430;2023-11-21T01:42:47;12.00;99.90
23568;DHT22;11962;50.838;4.430;2023-11-21T01:45:14;12.00;99.90
23568;DHT22;11962;50.838;4.430;2023-11-21T01:47:41;11.90;99.90
23568;DHT22;11962;50.838;4.430;2023-11-21T01:50:09;12.00;99.90
23568;DHT22;11962;50.838;4.430;2023-11-21T01:52:38;12.00;99.90
23568;DHT22;11962;50.838;4.430;2023-11-21T01:55:06;12.00;99.90
23568;DHT22;11962;50.838;4.430;2023-11-21T01:57:34;12.00;99.90
23568;DHT22;11962;50.838;4.430;2023-11-21T02:00:02;12.00;99.90
23568;DHT22;11962;50.838;4.430;2023-11-21T02:02:44;12.10;99.90
23568;DHT22;11962;50.838;4.430;2023-11-21T02:05:18;12.00;99.90
23568;DHT22;11962;50.838;4.430;2023-11-21T02:07:44;12.00;99.90
23568;DHT22;11962;50.838;4.430;2023-11-21T02:10:10;12.00;99.90
23568;DHT22;11962;50.838;4.430;2023-11-21T02:12:40;12.10;99.90
23568;DHT22;11962;50.838;4.430;2023-11-21T02:15:08;12.10;99.90
23568;DHT22;11962;50.838;4.430;2023-11-21T02:17:43;12.10;99.90
23568;DHT22;11962;50.838;4.430;2023-11-21T02:20:12;12.10;99.90
23568;DHT22;11962;50.838;4.430;2023-11-21T02:22:42;12.20;99.90
23568;DHT22;11962;50.838;4.430;2023-11-21T02:25:09;12.10;99.90
23568;DHT22;11962;50.838;4.430;2023-11-21T02:27:34;12.10;99.90
23568;DHT22;11962;50.838;4.430;2023-11-21T02:30:00;12.10;99.90
23568;DHT22;11962;50.838;4.430;2023-11-21T02:32:27;12.10;99.90
23568;DHT22;11962;50.838;4.430;2023-11-21T02:34:52;12.10;99.90
23568;DHT22;11962;50.838;4.430;2023-11-21T02:37:21;12.10;99.90
23568;DHT22;11962;50.838;4.430;2023-11-21T02:39:47;12.10;99.90
23568;DHT22;11962;50.838;4.430;2023-11-21T02:42:12;12.10;99.90
23568;DHT22;11962;50.838;4.430;2023-11-21T02:44:38;12.00;99.90
23568;DHT22;11962;50.838;4.430;2023-11-21T02:47:04;12.00;99.90
23568;DHT22;11962;50.838;4.430;2023-11-21T02:49:29;12.00;99.90
23568;DHT22;11962;50.838;4.430;2023-11-21T02:51:56;12.00;99.90
23568;DHT22;11962;50.838;4.430;2023-11-21T02:54:22;12.00;99.90
23568;DHT22;11962;50.838;4.430;2023-11-21T02:56:48;12.00;99.90
23568;DHT22;11962;50.838;4.430;2023-11-21T02:59:15;12.00;99.90
23568;DHT22;11962;50.838;4.430;2023-11-21T03:01:41;12.00;99.90
23568;DHT22;11962;50.838;4.430;2023-11-21T03:04:07;12.00;99.90
23568;DHT22;11962;50.838;4.430;2023-11-21T03:06:32;12.00;99.90
23568;DHT22;11962;50.838;4.430;2023-11-21T03:08:59;12.00;99.90
23568;DHT22;11962;50.838;4.430;2023-11-21T03:11:24;12.00;99.90
23568;DHT22;11962;50.838;4.430;2023-11-21T03:13:50;12.10;99.90
23568;DHT22;11962;50.838;4.430;2023-11-21T03:16:16;12.10;99.90
23568;DHT22;11962;50.838;4.430;2023-11-21T03:18:42;12.10;99.90
23568;DHT22;11962;50.838;4.430;2023-11-21T03:21:08;12.10;99.90
23568;DHT22;11962;50.838;4.430;2023-11-21T03:23:37;12.20;99.90
23568;DHT22;11962;50.838;4.430;2023-11-21T03:26:03;12.20;99.90
23568;DHT22;11962;50.838;4.430;2023-11-21T03:28:29;12.20;99.90
23568;DHT22;11962;50.838;4.430;2023-11-21T03:30:57;12.20;99.90
23568;DHT22;11962;50.838;4.430;2023-11-21T03:33:23;12.20;99.90
23568;DHT22;11962;50.838;4.430;2023-11-21T03:35:49;12.20;99.90
23568;DHT22;11962;50.838;4.430;2023-11-21T03:38:15;12.30;99.90
23568;DHT22;11962;50.838;4.430;2023-11-21T03:40:41;12.30;99.90
23568;DHT22;11962;50.838;4.430;2023-11-21T03:43:07;12.30;99.90
23568;DHT22;11962;50.838;4.430;2023-11-21T03:45:33;12.30;99.90
23568;DHT22;11962;50.838;4.430;2023-11-21T03:47:59;12.30;99.90
23568;DHT22;11962;50.838;4.430;2023-11-21T03:50:29;12.30;99.90
23568;DHT22;11962;50.838;4.430;2023-11-21T03:52:55;12.30;99.90
23568;DHT22;11962;50.838;4.430;2023-11-21T03:55:21;12.30;99.90
23568;DHT22;11962;50.838;4.430;2023-11-21T03:57:46;12.30;99.90
23568;DHT22;11962;50.838;4.430;2023-11-21T04:00:12;12.30;99.90
23568;DHT22;11962;50.838;4.430;2023-11-21T04:02:38;12.30;99.90
23568;DHT22;11962;50.838;4.430;2023-11-21T04:05:05;12.30;99.90
23568;DHT22;11962;50.838;4.430;2023-11-21T04:07:32;12.30;99.90
23568;DHT22;11962;50.838;4.430;2023-11-21T04:09:58;12.30;99.90
23568;DHT22;11962;50.838;4.430;2023-11-21T04:12:24;12.30;99.90
23568;DHT22;11962;50.838;4.430;2023-11-21T04:14:50;12.30;99.90
23568;DHT22;11962;50.838;4.430;2023-11-21T04:17:18;12.30;99.90
23568;DHT22;11962;50.838;4.430;2023-11-21T04:19:45;12.30;99.90
23568;DHT22;11962;50.838;4.430;2023-11-21T04:22:11;12.30;99.90
23568;DHT22;11962;50.838;4.430;2023-11-21T04:24:37;12.30;99.90
23568;DHT22;11962;50.838;4.430;2023-11-21T04:27:04;12.40;99.90
23568;DHT22;11962;50.838;4.430;2023-11-21T04:29:29;12.40;99.90
23568;DHT22;11962;50.838;4.430;2023-11-21T04:31:55;12.40;99.90
23568;DHT22;11962;50.838;4.430;2023-11-21T04:34:21;12.40;99.90
23568;DHT22;11962;50.838;4.430;2023-11-21T04:36:47;12.40;99.90
23568;DHT22;11962;50.838;4.430;2023-11-21T04:39:12;12.30;99.90
23568;DHT22;11962;50.838;4.430;2023-11-21T04:41:38;12.30;99.90
23568;DHT22;11962;50.838;4.430;2023-11-21T04:44:07;12.30;99.90
23568;DHT22;11962;50.838;4.430;2023-11-21T04:46:32;12.30;99.90
23568;DHT22;11962;50.838;4.430;2023-11-21T04:48:59;12.30;99.90
23568;DHT22;11962;50.838;4.430;2023-11-21T04:51:24;12.30;99.90
23568;DHT22;11962;50.838;4.430;2023-11-21T04:53:50;12.30;99.90
23568;DHT22;11962;50.838;4.430;2023-11-21T04:56:16;12.30;99.90
23568;DHT22;11962;50.838;4.430;2023-11-21T04:58:42;12.30;99.90
23568;DHT22;11962;50.838;4.430;2023-11-21T05:01:08;12.30;99.90
23568;DHT22;11962;50.838;4.430;2023-11-21T05:03:34;12.30;99.90
23568;DHT22;11962;50.838;4.430;2023-11-21T05:06:00;12.30;99.90
23568;DHT22;11962;50.838;4.430;2023-11-21T05:08:26;12.40;99.90
23568;DHT22;11962;50.838;4.430;2023-11-21T05:10:52;12.40;99.90
23568;DHT22;11962;50.838;4.430;2023-11-21T05:13:19;12.40;99.90
23568;DHT22;11962;50.838;4.430;2023-11-21T05:15:45;12.30;99.90
23568;DHT22;11962;50.838;4.430;2023-11-21T05:18:11;12.40;99.90
23568;DHT22;11962;50.838;4.430;2023-11-21T05:20:39;12.40;99.90
23568;DHT22;11962;50.838;4.430;2023-11-21T05:23:06;12.40;99.90
23568;DHT22;11962;50.838;4.430;2023-11-21T05:25:33;12.40;99.90
23568;DHT22;11962;50.838;4.430;2023-11-21T05:27:59;12.40;99.90
23568;DHT22;11962;50.838;4.430;2023-11-21T05:30:27;12.40;99.90
23568;DHT22;11962;50.838;4.430;2023-11-21T05:32:52;12.40;99.90
23568;DHT22;11962;50.838;4.430;2023-11-21T05:35:19;12.40;99.90
23568;DHT22;11962;50.838;4.430;2023-11-21T05:37:45;12.40;99.90
23568;DHT22;11962;50.838;4.430;2023-11-21T05:40:11;12.40;99.90
23568;DHT22;11962;50.838;4.430;2023-11-21T05:42:39;12.40;99.90
23568;DHT22;11962;50.838;4.430;2023-11-21T05:45:07;12.40;99.90
23568;DHT22;11962;50.838;4.430;2023-11-21T05:50:04;12.40;99.90
23568;DHT22;11962;50.838;4.430;2023-11-21T05:52:31;12.40;99.90
23568;DHT22;11962;50.838;4.430;2023-11-21T05:54:58;12.40;99.90
23568;DHT22;11962;50.838;4.430;2023-11-21T05:57:23;12.40;99.90
23568;DHT22;11962;50.838;4.430;2023-11-21T05:59:49;12.40;99.90
23568;DHT22;11962;50.838;4.430;2023-11-21T06:02:15;12.40;99.90
23568;DHT22;11962;50.838;4.430;2023-11-21T06:04:40;12.40;99.90
23568;DHT22;11962;50.838;4.430;2023-11-21T06:07:06;12.40;99.90
23568;DHT22;11962;50.838;4.430;2023-11-21T06:09:32;12.40;99.90
23568;DHT22;11962;50.838;4.430;2023-11-21T06:11:58;12.40;99.90
23568;DHT22;11962;50.838;4.430;2023-11-21T06:14:24;12.40;99.90
23568;DHT22;11962;50.838;4.430;2023-11-21T06:16:50;12.50;99.90
23568;DHT22;11962;50.838;4.430;2023-11-21T06:19:17;12.50;99.90
23568;DHT22;11962;50.838;4.430;2023-11-21T06:21:46;12.50;99.90
23568;DHT22;11962;50.838;4.430;2023-11-21T06:24:12;12.50;99.90
23568;DHT22;11962;50.838;4.430;2023-11-21T06:26:38;12.50;99.90
23568;DHT22;11962;50.838;4.430;2023-11-21T06:29:04;12.60;99.90
23568;DHT22;11962;50.838;4.430;2023-11-21T06:31:30;12.50;99.90
23568;DHT22;11962;50.838;4.430;2023-11-21T06:33:55;12.60;99.90
23568;DHT22;11962;50.838;4.430;2023-11-21T06:36:21;12.60;99.90
23568;DHT22;11962;50.838;4.430;2023-11-21T06:38:47;12.60;99.90
23568;DHT22;11962;50.838;4.430;2023-11-21T06:41:13;12.70;99.90
23568;DHT22;11962;50.838;4.430;2023-11-21T06:43:40;12.60;99.90
23568;DHT22;11962;50.838;4.430;2023-11-21T06:46:06;12.50;99.90
23568;DHT22;11962;50.838;4.430;2023-11-21T06:48:32;12.50;99.90
23568;DHT22;11962;50.838;4.430;2023-11-21T06:50:58;12.50;99.90
23568;DHT22;11962;50.838;4.430;2023-11-21T06:53:23;12.50;99.90
23568;DHT22;11962;50.838;4.430;2023-11-21T06:55:50;12.60;99.90
23568;DHT22;11962;50.838;4.430;2023-11-21T06:58:15;12.60;99.90
23568;DHT22;11962;50.838;4.430;2023-11-21T07:00:41;12.60;99.90
23568;DHT22;11962;50.838;4.430;2023-11-21T07:03:11;12.60;99.90
23568;DHT22;11962;50.838;4.430;2023-11-21T07:05:37;12.60;99.90
23568;DHT22;11962;50.838;4.430;2023-11-21T07:08:03;12.60;99.90
23568;DHT22;11962;50.838;4.430;2023-11-21T07:10:30;12.60;99.90
23568;DHT22;11962;50.838;4.430;2023-11-21T07:12:55;12.60;99.90
23568;DHT22;11962;50.838;4.430;2023-11-21T07:15:22;12.50;99.90
23568;DHT22;11962;50.838;4.430;2023-11-21T07:17:48;12.50;99.90
23568;DHT22;11962;50.838;4.430;2023-11-21T07:20:14;12.50;99.90
23568;DHT22;11962;50.838;4.430;2023-11-21T07:22:42;12.50;99.90
23568;DHT22;11962;50.838;4.430;2023-11-21T07:25:08;12.50;99.90
23568;DHT22;11962;50.838;4.430;2023-11-21T07:27:35;12.60;99.90
23568;DHT22;11962;50.838;4.430;2023-11-21T07:30:02;12.60;99.90
23568;DHT22;11962;50.838;4.430;2023-11-21T07:32:31;12.60;99.90
23568;DHT22;11962;50.838;4.430;2023-11-21T07:34:57;12.70;99.90
23568;DHT22;11962;50.838;4.430;2023-11-21T07:37:25;12.70;99.90
23568;DHT22;11962;50.838;4.430;2023-11-21T07:39:54;12.70;99.90
23568;DHT22;11962;50.838;4.430;2023-11-21T07:42:23;12.70;99.90
23568;DHT22;11962;50.838;4.430;2023-11-21T07:44:49;12.80;99.90
23568;DHT22;11962;50.838;4.430;2023-11-21T07:47:15;12.80;99.90
23568;DHT22;11962;50.838;4.430;2023-11-21T07:49:41;12.80;99.90
23568;DHT22;11962;50.838;4.430;2023-11-21T07:52:09;12.90;99.90
23568;DHT22;11962;50.838;4.430;2023-11-21T07:54:35;12.90;99.90
23568;DHT22;11962;50.838;4.430;2023-11-21T07:57:01;13.00;99.90
23568;DHT22;11962;50.838;4.430;2023-11-21T07:59:29;13.00;99.90
23568;DHT22;11962;50.838;4.430;2023-11-21T08:01:55;13.10;99.90
23568;DHT22;11962;50.838;4.430;2023-11-21T08:04:21;13.10;99.90
23568;DHT22;11962;50.838;4.430;2023-11-21T08:06:46;13.20;99.90
23568;DHT22;11962;50.838;4.430;2023-11-21T08:09:12;13.20;99.90
23568;DHT22;11962;50.838;4.430;2023-11-21T08:11:38;13.20;99.90
23568;DHT22;11962;50.838;4.430;2023-11-21T08:14:04;13.20;99.90
23568;DHT22;11962;50.838;4.430;2023-11-21T08:16:30;13.20;99.90
23568;DHT22;11962;50.838;4.430;2023-11-21T08:18:56;13.20;99.90
23568;DHT22;11962;50.838;4.430;2023-11-21T08:21:22;13.20;99.90
23568;DHT22;11962;50.838;4.430;2023-11-21T08:23:52;13.20;99.90
23568;DHT22;11962;50.838;4.430;2023-11-21T08:26:20;13.20;99.90
23568;DHT22;11962;50.838;4.430;2023-11-21T08:28:46;13.30;99.90
23568;DHT22;11962;50.838;4.430;2023-11-21T08:31:13;13.30;99.90
23568;DHT22;11962;50.838;4.430;2023-11-21T08:33:38;13.30;99.90
23568;DHT22;11962;50.838;4.430;2023-11-21T08:36:09;13.40;99.90
23568;DHT22;11962;50.838;4.430;2023-11-21T08:38:35;13.40;99.90
23568;DHT22;11962;50.838;4.430;2023-11-21T08:41:05;13.40;99.90
23568;DHT22;11962;50.838;4.430;2023-11-21T08:43:34;13.40;99.90
23568;DHT22;11962;50.838;4.430;2023-11-21T08:46:00;13.40;99.90
23568;DHT22;11962;50.838;4.430;2023-11-21T08:48:26;13.40;99.90
23568;DHT22;11962;50.838;4.430;2023-11-21T08:50:53;13.30;99.90
23568;DHT22;11962;50.838;4.430;2023-11-21T08:53:19;13.30;99.90
23568;DHT22;11962;50.838;4.430;2023-11-21T08:55:45;13.30;99.90
23568;DHT22;11962;50.838;4.430;2023-11-21T08:58:11;13.30;99.90
23568;DHT22;11962;50.838;4.430;2023-11-21T09:00:39;13.30;99.90
23568;DHT22;11962;50.838;4.430;2023-11-21T09:03:06;13.30;99.90
23568;DHT22;11962;50.838;4.430;2023-11-21T09:05:37;13.30;99.90
23568;DHT22;11962;50.838;4.430;2023-11-21T09:08:04;13.30;99.90
23568;DHT22;11962;50.838;4.430;2023-11-21T09:10:30;13.40;99.90
23568;DHT22;11962;50.838;4.430;2023-11-21T09:12:56;13.40;99.90
23568;DHT22;11962;50.838;4.430;2023-11-21T09:15:22;13.40;99.90
23568;DHT22;11962;50.838;4.430;2023-11-21T09:17:48;13.50;99.90
23568;DHT22;11962;50.838;4.430;2023-11-21T09:20:14;13.50;99.90
23568;DHT22;11962;50.838;4.430;2023-11-21T09:22:40;13.60;99.90
23568;DHT22;11962;50.838;4.430;2023-11-21T09:25:07;13.60;99.90
23568;DHT22;11962;50.838;4.430;2023-11-21T09:27:34;13.50;99.90
23568;DHT22;11962;50.838;4.430;2023-11-21T09:30:01;13.50;99.90
23568;DHT22;11962;50.838;4.430;2023-11-21T09:32:27;13.60;99.90
23568;DHT22;11962;50.838;4.430;2023-11-21T09:34:53;13.60;99.90
23568;DHT22;11962;50.838;4.430;2023-11-21T09:37:20;13.60;99.90
23568;DHT22;11962;50.838;4.430;2023-11-21T09:39:46;13.70;99.90
23568;DHT22;11962;50.838;4.430;2023-11-21T09:42:17;13.70;99.90
23568;DHT22;11962;50.838;4.430;2023-11-21T09:44:57;13.70;99.90
23568;DHT22;11962;50.838;4.430;2023-11-21T09:47:24;13.80;99.90
23568;DHT22;11962;50.838;4.430;2023-11-21T09:49:52;13.80;99.90
23568;DHT22;11962;50.838;4.430;2023-11-21T09:52:25;13.90;99.90
23568;DHT22;11962;50.838;4.430;2023-11-21T09:54:55;13.90;99.90
23568;DHT22;11962;50.838;4.430;2023-11-21T09:57:24;13.90;99.90
23568;DHT22;11962;50.838;4.430;2023-11-21T09:59:53;13.90;99.90
23568;DHT22;11962;50.838;4.430;2023-11-21T10:02:28;13.90;99.90
23568;DHT22;11962;50.838;4.430;2023-11-21T10:05:00;14.00;99.90
23568;DHT22;11962;50.838;4.430;2023-11-21T10:07:27;14.00;99.90
23568;DHT22;11962;50.838;4.430;2023-11-21T10:09:54;14.00;99.90
23568;DHT22;11962;50.838;4.430;2023-11-21T10:12:21;14.10;99.90
23568;DHT22;11962;50.838;4.430;2023-11-21T10:14:49;14.10;99.90
23568;DHT22;11962;50.838;4.430;2023-11-21T10:17:18;14.10;99.90
23568;DHT22;11962;50.838;4.430;2023-11-21T10:19:47;14.10;99.90
23568;DHT22;11962;50.838;4.430;2023-11-21T10:22:15;14.00;99.90
23568;DHT22;11962;50.838;4.430;2023-11-21T10:24:41;14.00;99.90
23568;DHT22;11962;50.838;4.430;2023-11-21T10:27:09;14.00;99.90
23568;DHT22;11962;50.838;4.430;2023-11-21T10:29:35;14.00;99.90
23568;DHT22;11962;50.838;4.430;2023-11-21T10:32:02;14.10;99.90
23568;DHT22;11962;50.838;4.430;2023-11-21T10:34:29;14.30;99.90
23568;DHT22;11962;50.838;4.430;2023-11-21T10:36:55;14.30;99.90
23568;DHT22;11962;50.838;4.430;2023-11-21T10:39:24;14.30;99.90
23568;DHT22;11962;50.838;4.430;2023-11-21T10:41:54;14.40;99.90
23568;DHT22;11962;50.838;4.430;2023-11-21T10:44:20;14.60;99.90
23568;DHT22;11962;50.838;4.430;2023-11-21T10:46:51;14.80;99.90
23568;DHT22;11962;50.838;4.430;2023-11-21T10:49:21;14.90;99.90
23568;DHT22;11962;50.838;4.430;2023-11-21T10:51:47;15.00;99.90
23568;DHT22;11962;50.838;4.430;2023-11-21T10:54:22;15.00;99.90
23568;DHT22;11962;50.838;4.430;2023-11-21T10:56:56;15.10;99.90
23568;DHT22;11962;50.838;4.430;2023-11-21T10:59:23;15.20;99.90
23568;DHT22;11962;50.838;4.430;2023-11-21T11:01:51;15.30;99.90
23568;DHT22;11962;50.838;4.430;2023-11-21T11:04:19;15.30;99.90
23568;DHT22;11962;50.838;4.430;2023-11-21T11:06:55;15.30;99.90
23568;DHT22;11962;50.838;4.430;2023-11-21T11:09:22;15.40;99.90
23568;DHT22;11962;50.838;4.430;2023-11-21T11:11:48;15.60;99.90
23568;DHT22;11962;50.838;4.430;2023-11-21T11:14:14;15.70;99.90
23568;DHT22;11962;50.838;4.430;2023-11-21T11:16:41;15.80;99.90
23568;DHT22;11962;50.838;4.430;2023-11-21T11:19:09;15.80;99.90
23568;DHT22;11962;50.838;4.430;2023-11-21T11:21:43;15.70;99.90
23568;DHT22;11962;50.838;4.430;2023-11-21T11:29:31;15.40;99.90
23568;DHT22;11962;50.838;4.430;2023-11-21T11:32:08;15.50;99.90
23568;DHT22;11962;50.838;4.430;2023-11-21T11:35:13;15.60;99.90
23568;DHT22;11962;50.838;4.430;2023-11-21T11:37:43;15.50;99.90
23568;DHT22;11962;50.838;4.430;2023-11-21T11:40:13;15.50;99.90
23568;DHT22;11962;50.838;4.430;2023-11-21T11:42:58;15.50;99.90
23568;DHT22;11962;50.838;4.430;2023-11-21T11:45:35;15.50;99.90
23568;DHT22;11962;50.838;4.430;2023-11-21T11:48:01;15.60;99.90
23568;DHT22;11962;50.838;4.430;2023-11-21T11:50:29;15.70;99.90
23568;DHT22;11962;50.838;4.430;2023-11-21T11:53:14;15.70;99.90
23568;DHT22;11962;50.838;4.430;2023-11-21T11:55:41;15.70;99.90
23568;DHT22;11962;50.838;4.430;2023-11-21T11:58:18;15.70;99.90
23568;DHT22;11962;50.838;4.430;2023-11-21T12:00:44;15.60;99.90
23568;DHT22;11962;50.838;4.430;2023-11-21T12:03:13;15.50;99.90
23568;DHT22;11962;50.838;4.430;2023-11-21T12:05:40;15.30;99.90
23568;DHT22;11962;50.838;4.430;2023-11-21T12:08:08;15.20;99.90
23568;DHT22;11962;50.838;4.430;2023-11-21T12:10:35;15.10;99.90
23568;DHT22;11962;50.838;4.430;2023-11-21T12:13:11;15.10;99.90
23568;DHT22;11962;50.838;4.430;2023-11-21T12:15:39;15.00;99.90
23568;DHT22;11962;50.838;4.430;2023-11-21T12:18:07;14.90;99.90
23568;DHT22;11962;50.838;4.430;2023-11-21T12:20:33;14.80;99.90
23568;DHT22;11962;50.838;4.430;2023-11-21T12:23:05;14.80;99.90
23568;DHT22;11962;50.838;4.430;2023-11-21T12:25:31;14.70;99.90
23568;DHT22;11962;50.838;4.430;2023-11-21T12:28:02;14.80;99.90
23568;DHT22;11962;50.838;4.430;2023-11-21T12:30:33;14.80;99.90
23568;DHT22;11962;50.838;4.430;2023-11-21T12:33:01;14.80;99.90
23568;DHT22;11962;50.838;4.430;2023-11-21T12:35:30;14.80;99.90
23568;DHT22;11962;50.838;4.430;2023-11-21T12:37:59;14.70;99.90
23568;DHT22;11962;50.838;4.430;2023-11-21T12:40:26;14.60;99.90
23568;DHT22;11962;50.838;4.430;2023-11-21T12:42:55;14.50;99.90
23568;DHT22;11962;50.838;4.430;2023-11-21T12:45:25;14.50;99.90
23568;DHT22;11962;50.838;4.430;2023-11-21T12:48:10;14.60;99.90
23568;DHT22;11962;50.838;4.430;2023-11-21T12:50:38;14.60;99.90
23568;DHT22;11962;50.838;4.430;2023-11-21T12:53:08;14.60;99.90
23568;DHT22;11962;50.838;4.430;2023-11-21T12:55:35;14.70;99.90
23568;DHT22;11962;50.838;4.430;2023-11-21T12:58:05;14.70;99.90
23568;DHT22;11962;50.838;4.430;2023-11-21T13:03:03;14.70;99.90
23568;DHT22;11962;50.838;4.430;2023-11-21T13:05:34;14.70;99.90
23568;DHT22;11962;50.838;4.430;2023-11-21T13:08:02;14.70;99.90
23568;DHT22;11962;50.838;4.430;2023-11-21T13:10:30;14.70;99.90
23568;DHT22;11962;50.838;4.430;2023-11-21T13:13:00;14.60;99.90
23568;DHT22;11962;50.838;4.430;2023-11-21T13:15:27;14.40;99.90
23568;DHT22;11962;50.838;4.430;2023-11-21T13:17:54;14.40;99.90
23568;DHT22;11962;50.838;4.430;2023-11-21T13:20:21;14.40;99.90
23568;DHT22;11962;50.838;4.430;2023-11-21T13:22:48;14.30;99.90
23568;DHT22;11962;50.838;4.430;2023-11-21T13:25:15;14.20;99.90
23568;DHT22;11962;50.838;4.430;2023-11-21T13:27:44;14.20;99.90
23568;DHT22;11962;50.838;4.430;2023-11-21T13:30:14;14.20;99.90
23568;DHT22;11962;50.838;4.430;2023-11-21T13:32:43;14.20;99.90
23568;DHT22;11962;50.838;4.430;2023-11-21T13:35:10;14.20;99.90
23568;DHT22;11962;50.838;4.430;2023-11-21T13:37:47;14.10;99.90
23568;DHT22;11962;50.838;4.430;2023-11-21T13:40:15;14.10;99.90
23568;DHT22;11962;50.838;4.430;2023-11-21T13:42:45;14.20;99.90
23568;DHT22;11962;50.838;4.430;2023-11-21T13:45:11;14.30;99.90
23568;DHT22;11962;50.838;4.430;2023-11-21T13:47:38;14.30;99.90
23568;DHT22;11962;50.838;4.430;2023-11-21T13:50:06;14.40;99.90
23568;DHT22;11962;50.838;4.430;2023-11-21T13:52:43;14.50;99.90
23568;DHT22;11962;50.838;4.430;2023-11-21T13:55:10;14.50;99.90
23568;DHT22;11962;50.838;4.430;2023-11-21T13:57:42;14.50;99.90
23568;DHT22;11962;50.838;4.430;2023-11-21T14:00:15;14.50;99.90
23568;DHT22;11962;50.838;4.430;2023-11-21T14:03:00;14.50;99.90
23568;DHT22;11962;50.838;4.430;2023-11-21T14:05:29;14.60;99.90
23568;DHT22;11962;50.838;4.430;2023-11-21T14:07:57;14.50;99.90
23568;DHT22;11962;50.838;4.430;2023-11-21T14:10:29;14.50;99.90
23568;DHT22;11962;50.838;4.430;2023-11-21T14:13:06;14.50;99.90
23568;DHT22;11962;50.838;4.430;2023-11-21T14:15:32;14.50;99.90
23568;DHT22;11962;50.838;4.430;2023-11-21T14:18:02;14.40;99.90
23568;DHT22;11962;50.838;4.430;2023-11-21T14:20:33;14.40;99.90
23568;DHT22;11962;50.838;4.430;2023-11-21T14:23:01;14.40;99.90
23568;DHT22;11962;50.838;4.430;2023-11-21T14:25:27;14.40;99.90
23568;DHT22;11962;50.838;4.430;2023-11-21T14:27:53;14.30;99.90
23568;DHT22;11962;50.838;4.430;2023-11-21T14:30:19;14.40;99.90
23568;DHT22;11962;50.838;4.430;2023-11-21T14:32:47;14.30;99.90
23568;DHT22;11962;50.838;4.430;2023-11-21T14:35:14;14.30;99.90
23568;DHT22;11962;50.838;4.430;2023-11-21T14:37:40;14.30;99.90
23568;DHT22;11962;50.838;4.430;2023-11-21T14:40:06;14.30;99.90
23568;DHT22;11962;50.838;4.430;2023-11-21T14:42:33;14.30;99.90
23568;DHT22;11962;50.838;4.430;2023-11-21T14:45:00;14.20;99.90
23568;DHT22;11962;50.838;4.430;2023-11-21T14:47:29;14.20;99.90
23568;DHT22;11962;50.838;4.430;2023-11-21T14:49:54;14.20;99.90
23568;DHT22;11962;50.838;4.430;2023-11-21T14:52:25;14.10;99.90
23568;DHT22;11962;50.838;4.430;2023-11-21T14:54:53;14.00;99.90
23568;DHT22;11962;50.838;4.430;2023-11-21T14:57:39;13.90;99.90
23568;DHT22;11962;50.838;4.430;2023-11-21T15:00:05;13.80;99.90
23568;DHT22;11962;50.838;4.430;2023-11-21T15:02:35;13.70;99.90
23568;DHT22;11962;50.838;4.430;2023-11-21T15:05:15;13.60;99.90
23568;DHT22;11962;50.838;4.430;2023-11-21T15:07:41;13.50;99.90
23568;DHT22;11962;50.838;4.430;2023-11-21T15:10:08;13.40;99.90
23568;DHT22;11962;50.838;4.430;2023-11-21T15:12:38;13.40;99.90
23568;DHT22;11962;50.838;4.430;2023-11-21T15:15:05;13.40;99.90
23568;DHT22;11962;50.838;4.430;2023-11-21T15:17:36;13.40;99.90
23568;DHT22;11962;50.838;4.430;2023-11-21T15:20:03;13.30;99.90
23568;DHT22;11962;50.838;4.430;2023-11-21T15:22:32;13.30;99.90
23568;DHT22;11962;50.838;4.430;2023-11-21T15:24:58;13.30;99.90
23568;DHT22;11962;50.838;4.430;2023-11-21T15:27:24;13.30;99.90
23568;DHT22;11962;50.838;4.430;2023-11-21T15:29:50;13.20;99.90
23568;DHT22;11962;50.838;4.430;2023-11-21T15:32:16;13.20;99.90
23568;DHT22;11962;50.838;4.430;2023-11-21T15:34:41;13.20;99.90
23568;DHT22;11962;50.838;4.430;2023-11-21T15:37:08;13.20;99.90
23568;DHT22;11962;50.838;4.430;2023-11-21T15:39:40;13.20;99.90
23568;DHT22;11962;50.838;4.430;2023-11-21T15:42:06;13.30;99.90